Date,TemperatureHighF,TemperatureAvgF,TemperatureLowF,DewpointHighF,DewpointAvgF,DewpointLowF,HumidityHigh,HumidityAvg,HumidityLow,PressureMaxIn,PressureMinIn,WindSpeedMaxMPH,WindSpeedAvgMPH,GustSpeedMaxMPH,PrecipitationSumIn
2013-7-1,79.6,74.3,71.3,76.9,71.9,69.3,95,92,85,30.01,29.85,21,4,21,0.50
2013-7-2,83.2,74.8,72.1,75.9,72.3,70.6,95,92,75,30.09,29.96,23,2,23,0.12
2013-7-3,89.9,76.7,72.5,78.9,73.1,69.8,95,89,64,30.12,30.03,27,3,27,0.40
2013-7-4,88.0,77.0,71.3,79.1,72.7,69.3,94,87,66,30.14,30.06,23,4,23,0.28
2013-7-5,89.5,77.5,71.7,77.6,73.3,69.8,95,87,61,30.15,30.05,30,4,30,0.54
2013-7-6,91.6,81.0,74.1,77.2,73.3,69.9,93,79,52,30.11,30.01,19,5,19,0.02
2013-7-7,90.1,81.7,73.7,77.5,73.6,70.8,93,77,56,30.12,30.01,20,5,20,0.01
2013-7-8,91.3,82.3,73.9,76.4,73.0,70.3,93,75,52,30.14,30.05,16,4,16,0.00
2013-7-9,91.5,80.7,71.1,76.2,72.0,68.1,94,76,47,30.15,30.04,19,3,19,0.00
2013-7-10,91.9,79.7,70.9,75.8,71.7,68.8,94,78,50,30.08,29.94,19,2,19,0.00
2013-7-11,90.4,79.2,72.1,77.2,72.6,69.7,93,81,55,30.03,29.91,21,3,21,0.34
2013-7-12,88.7,77.1,71.8,79.0,73.1,69.7,94,88,64,29.95,29.88,17,1,17,0.23
2013-7-13,88.6,76.7,70.7,76.0,72.1,68.5,94,86,61,29.98,29.90,21,2,21,0.26
2013-7-14,85.6,75.2,71.9,78.1,72.0,69.4,94,90,75,30.07,29.95,17,3,17,0.40
2013-7-15,88.0,77.8,69.2,75.9,72.1,67.4,94,83,59,30.10,30.01,16,3,16,0.01
2013-7-16,87.8,76.1,71.7,78.1,72.0,69.0,93,88,65,30.16,30.07,24,4,24,0.96
2013-7-17,88.5,78.2,73.2,77.1,73.1,68.8,93,85,62,30.15,30.06,29,4,29,0.02
2013-7-18,88.7,78.1,69.9,77.6,72.3,67.5,93,83,63,30.11,30.02,15,3,15,0.30
2013-7-19,90.7,76.1,70.1,77.3,71.5,68.0,93,86,59,30.12,30.02,17,2,22,1.45
2013-7-20,92.0,76.9,71.1,80.1,72.6,69.0,93,87,61,30.10,30.00,27,2,27,0.15
2013-7-21,92.3,78.7,70.7,81.3,73.5,68.6,93,85,64,30.12,30.01,17,2,17,0.00
2013-7-22,91.4,78.0,72.7,79.3,73.2,70.1,92,86,61,30.12,30.05,22,2,22,0.38
2013-7-23,88.0,76.7,72.3,79.2,72.9,70.1,93,89,68,30.09,29.95,20,2,20,0.12
2013-7-24,88.3,79.1,73.8,79.6,74.9,71.5,93,87,70,30.00,29.88,16,3,32,0.35
2013-7-25,87.2,78.5,72.4,80.9,74.5,70.3,94,88,71,30.00,29.87,19,2,19,0.43
2013-7-26,92.1,80.8,72.9,79.7,74.5,70.8,94,82,57,30.00,29.93,18,2,18,0.02
2013-7-27,92.5,81.8,73.1,80.0,74.4,71.0,94,80,55,29.99,29.88,15,2,15,0.01
2013-7-28,92.0,79.0,71.6,78.2,73.1,69.5,94,83,55,30.06,29.93,13,1,13,0.01
2013-7-29,95.0,80.4,70.5,78.3,72.4,68.4,94,78,46,30.14,30.01,25,2,25,0.00
2013-7-30,94.8,82.3,72.5,78.6,73.7,70.1,94,77,47,30.16,30.06,19,2,19,0.00
2013-7-31,95.7,80.7,73.3,78.2,73.7,70.2,93,81,47,30.12,29.99,18,2,18,0.16